Time;durP1;ratioP1;P1;durP2;ratioP2;P2;SDS_P1;SDS_P2;PMS_P1;PMS_P2;Temp;Humidity;BMP_temperature;BMP_pressure;BME280_temperature;BME280_humidity;BME280_pressure;Samples;Min_cycle;Max_cycle;Signal;HPM_P1;HPM_P2
2022/05/05 00:00:13;;;;;;;13.82;8.07;;;;;;;;;;5014102;28;20030;-64
2022/05/05 00:02:39;;;;;;;15.35;7.65;;;;;;;;;;5014317;28;20033;-65
2022/05/05 00:05:05;;;;;;;11.70;7.13;;;;;;;;;;5014155;28;20030;-65
2022/05/05 00:07:31;;;;;;;11.27;6.75;;;;;;;;;;5013835;28;20034;-65
2022/05/05 00:09:57;;;;;;;12.65;7.43;;;;;;;;;;5014168;28;20026;-65
2022/05/05 00:15:07;;;;;;;13.45;7.45;;;;;;;;;;5014252;28;20111;-65
2022/05/05 00:17:34;;;;;;;10.50;7.22;;;;;;;;;;5013927;28;20097;-65
2022/05/05 00:20:00;;;;;;;9.63;6.88;;;;;;;;;;5013629;28;20494;-65
2022/05/05 00:22:26;;;;;;;11.60;7.13;;;;;;;;;;5013597;28;20037;-65
2022/05/05 00:24:52;;;;;;;10.13;7.38;;;;;;;;;;5013743;28;20026;-65
2022/05/05 00:27:17;;;;;;;13.30;6.75;;;;;;;;;;5013782;28;20026;-65
2022/05/05 00:29:43;;;;;;;9.38;6.57;;;;;;;;;;5013681;28;20021;-65
2022/05/05 00:32:08;;;;;;;9.57;6.93;;;;;;;;;;5013753;28;20033;-65
2022/05/05 00:34:34;;;;;;;9.18;6.50;;;;;;;;;;5013780;28;20029;-65
2022/05/05 00:36:59;;;;;;;8.57;6.68;;;;;;;;;;5013205;28;20511;-65
2022/05/05 00:39:25;;;;;;;11.68;6.78;;;;;;;;;;5013908;28;20034;-65
2022/05/05 00:41:51;;;;;;;10.50;7.00;;;;;;;;;;5013527;28;20030;-64
2022/05/05 00:44:17;;;;;;;15.85;6.90;;;;;;;;;;5013475;28;20030;-65
2022/05/05 00:46:49;;;;;;;12.40;6.75;;;;;;;;;;5013554;28;20379;-65
2022/05/05 00:49:15;;;;;;;11.50;6.00;;;;;;;;;;5013423;28;20029;-65
2022/05/05 00:51:41;;;;;;;8.93;6.28;;;;;;;;;;5013214;28;20419;-64
2022/05/05 00:54:07;;;;;;;10.77;6.93;;;;;;;;;;5013411;28;20030;-65
2022/05/05 00:56:37;;;;;;;11.77;6.68;;;;;;;;;;5013562;28;20108;-65
2022/05/05 00:59:03;;;;;;;10.18;6.95;;;;;;;;;;5012090;28;20030;-65
2022/05/05 01:01:29;;;;;;;12.25;6.90;;;;;;;;;;5013133;28;20550;-65
2022/05/05 01:03:54;;;;;;;12.55;6.97;;;;;;;;;;5013331;28;20050;-65
2022/05/05 01:06:20;;;;;;;10.85;6.97;;;;;;;;;;5012744;28;20069;-65
2022/05/05 01:08:46;;;;;;;11.35;6.53;;;;;;;;;;5013210;28;20475;-64
2022/05/05 01:11:12;;;;;;;11.63;6.85;;;;;;;;;;5013059;28;20026;-65
2022/05/05 01:13:39;;;;;;;12.35;7.22;;;;;;;;;;5012935;28;20040;-64
2022/05/05 01:16:06;;;;;;;10.70;7.03;;;;;;;;;;5013054;28;20030;-65
2022/05/05 01:18:31;;;;;;;9.85;6.60;;;;;;;;;;5012886;28;20022;-65
2022/05/05 01:20:57;;;;;;;12.88;6.47;;;;;;;;;;5012846;28;20522;-64
2022/05/05 01:23:23;;;;;;;9.70;6.57;;;;;;;;;;5012851;28;20574;-64
2022/05/05 01:28:39;;;;;;;10.88;6.22;;;;;;;;;;5013054;28;20029;-64
2022/05/05 01:31:05;;;;;;;11.07;6.85;;;;;;;;;;5013011;28;20456;-64
2022/05/05 01:33:30;;;;;;;9.27;6.70;;;;;;;;;;5012794;28;20041;-63
2022/05/05 01:35:58;;;;;;;12.18;6.30;;;;;;;;;;5013037;28;20033;-64
2022/05/05 01:38:28;;;;;;;10.02;6.53;;;;;;;;;;5012879;28;20388;-65
2022/05/05 01:40:53;;;;;;;11.23;6.43;;;;;;;;;;5012808;28;20022;-64
2022/05/05 01:43:21;;;;;;;13.02;6.80;;;;;;;;;;5012873;28;20037;-63
2022/05/05 01:45:47;;;;;;;11.52;6.30;;;;;;;;;;5013106;28;20407;-64
2022/05/05 01:48:13;;;;;;;10.02;7.10;;;;;;;;;;5012509;28;20029;-65
2022/05/05 01:50:39;;;;;;;8.18;5.72;;;;;;;;;;5012716;28;20080;-63
2022/05/05 01:53:05;;;;;;;10.27;6.50;;;;;;;;;;5012717;28;20443;-63
2022/05/05 01:55:32;;;;;;;9.30;6.35;;;;;;;;;;5012748;28;20049;-63
2022/05/05 01:57:58;;;;;;;10.13;6.68;;;;;;;;;;5012842;28;20026;-63
2022/05/05 02:00:24;;;;;;;10.98;6.55;;;;;;;;;;5012726;28;20026;-63
2022/05/05 02:02:50;;;;;;;14.25;7.10;;;;;;;;;;5012532;28;20044;-65
2022/05/05 02:05:16;;;;;;;11.07;6.85;;;;;;;;;;5012575;28;20472;-65
2022/05/05 02:07:43;;;;;;;18.67;7.82;;;;;;;;;;5012658;28;20030;-64
2022/05/05 02:10:12;;;;;;;13.95;7.53;;;;;;;;;;5012592;28;20422;-62
2022/05/05 02:12:38;;;;;;;18.98;9.05;;;;;;;;;;5012562;28;20032;-64
2022/05/05 02:15:08;;;;;;;15.35;8.10;;;;;;;;;;5012594;28;20026;-64
2022/05/05 02:17:38;;;;;;;19.05;8.70;;;;;;;;;;5012372;28;20053;-64
2022/05/05 02:20:07;;;;;;;16.92;9.35;;;;;;;;;;5015232;28;20475;-65
2022/05/05 02:22:34;;;;;;;20.35;10.20;;;;;;;;;;5016002;28;20026;-64
2022/05/05 02:24:59;;;;;;;16.55;8.95;;;;;;;;;;5015976;28;20022;-64
2022/05/05 02:27:25;;;;;;;17.33;9.23;;;;;;;;;;5016138;28;20025;-65
2022/05/05 02:29:52;;;;;;;18.73;8.50;;;;;;;;;;5016054;28;20101;-65
2022/05/05 02:32:18;;;;;;;19.52;8.77;;;;;;;;;;5014496;28;20383;-66
2022/05/05 02:34:45;;;;;;;16.13;8.57;;;;;;;;;;5015863;28;20087;-64
2022/05/05 02:39:55;;;;;;;15.52;8.48;;;;;;;;;;5016079;28;20029;-64
2022/05/05 02:42:20;;;;;;;17.00;8.10;;;;;;;;;;5015741;28;20438;-65
2022/05/05 02:44:46;;;;;;;20.13;9.07;;;;;;;;;;5015753;28;20107;-64
2022/05/05 02:47:12;;;;;;;15.13;8.25;;;;;;;;;;5015465;28;20029;-64
2022/05/05 02:49:38;;;;;;;13.00;7.53;;;;;;;;;;5015489;28;20041;-65
2022/05/05 02:52:07;;;;;;;11.82;7.65;;;;;;;;;;5015494;28;20034;-65
2022/05/05 02:54:51;;;;;;;13.50;8.05;;;;;;;;;;5015597;28;20480;-64
2022/05/05 02:57:18;;;;;;;14.65;8.52;;;;;;;;;;5015479;28;20364;-65
2022/05/05 02:59:44;;;;;;;16.70;8.55;;;;;;;;;;5015236;28;20029;-65
2022/05/05 03:02:10;;;;;;;15.50;9.73;;;;;;;;;;5015176;28;20099;-64
2022/05/05 03:04:35;;;;;;;13.93;9.50;;;;;;;;;;5015327;28;20464;-64
2022/05/05 03:07:01;;;;;;;15.55;9.60;;;;;;;;;;5015247;28;20387;-65
2022/05/05 03:09:26;;;;;;;20.33;9.75;;;;;;;;;;5015226;28;20032;-64
2022/05/05 03:11:52;;;;;;;20.27;9.98;;;;;;;;;;5015239;28;20026;-65
2022/05/05 03:14:17;;;;;;;20.08;10.75;;;;;;;;;;5015556;28;20038;-67
2022/05/05 03:16:43;;;;;;;18.48;10.52;;;;;;;;;;5015046;28;20026;-65
2022/05/05 03:19:09;;;;;;;18.15;10.30;;;;;;;;;;5015106;28;20554;-65
2022/05/05 03:21:35;;;;;;;24.90;11.38;;;;;;;;;;5014787;28;20034;-65
2022/05/05 03:24:00;;;;;;;24.15;11.40;;;;;;;;;;5014933;28;20026;-65
2022/05/05 03:26:26;;;;;;;21.90;11.57;;;;;;;;;;5014855;28;20030;-65
2022/05/05 03:28:52;;;;;;;26.58;12.88;;;;;;;;;;5014812;28;20025;-65
2022/05/05 03:31:17;;;;;;;28.10;13.10;;;;;;;;;;5014644;28;20026;-65
2022/05/05 03:33:43;;;;;;;31.55;14.32;;;;;;;;;;5014839;28;20485;-66
2022/05/05 03:36:09;;;;;;;32.65;15.60;;;;;;;;;;5014824;28;20037;-65
2022/05/05 03:38:35;;;;;;;33.30;15.50;;;;;;;;;;5014641;28;20050;-65
2022/05/05 03:41:01;;;;;;;34.17;15.50;;;;;;;;;;5014560;28;20038;-65
2022/05/05 03:43:27;;;;;;;40.88;16.73;;;;;;;;;;5014390;28;20022;-64
2022/05/05 03:45:52;;;;;;;42.15;17.48;;;;;;;;;;5014630;28;20034;-65
2022/05/05 03:48:18;;;;;;;43.67;18.83;;;;;;;;;;5014385;28;20049;-65
2022/05/05 03:50:43;;;;;;;44.60;18.65;;;;;;;;;;5014363;28;20022;-64
2022/05/05 03:53:09;;;;;;;37.72;17.45;;;;;;;;;;5014262;28;20395;-65
2022/05/05 03:55:34;;;;;;;43.08;18.40;;;;;;;;;;5014509;28;20387;-65
2022/05/05 03:58:00;;;;;;;40.83;18.35;;;;;;;;;;5013950;28;20052;-65
2022/05/05 04:00:25;;;;;;;40.10;18.33;;;;;;;;;;5014218;28;20068;-64
2022/05/05 04:05:36;;;;;;;29.90;15.90;;;;;;;;;;5014437;28;20137;-64
2022/05/05 04:08:05;;;;;;;32.78;15.52;;;;;;;;;;5014116;28;20037;-64
2022/05/05 04:10:31;;;;;;;32.15;15.68;;;;;;;;;;5014028;28;20050;-64
2022/05/05 04:12:57;;;;;;;30.13;13.45;;;;;;;;;;5013724;28;20034;-63
2022/05/05 04:15:24;;;;;;;26.52;13.02;;;;;;;;;;5014022;28;20029;-64
2022/05/05 04:17:50;;;;;;;24.17;12.35;;;;;;;;;;5013886;28;20383;-64
2022/05/05 04:20:16;;;;;;;29.63;12.88;;;;;;;;;;5012500;28;20057;-65
2022/05/05 04:22:42;;;;;;;25.17;12.27;;;;;;;;;;5013840;28;20030;-62
2022/05/05 04:25:08;;;;;;;33.47;13.02;;;;;;;;;;5013888;28;20056;-65
2022/05/05 04:27:35;;;;;;;30.23;14.10;;;;;;;;;;5013617;28;20113;-65
2022/05/05 04:30:03;;;;;;;29.70;14.18;;;;;;;;;;5013567;28;20046;-64
2022/05/05 04:32:30;;;;;;;28.38;14.05;;;;;;;;;;5013461;28;20180;-64
2022/05/05 04:34:55;;;;;;;33.15;14.73;;;;;;;;;;5013619;28;20032;-65
2022/05/05 04:37:22;;;;;;;31.55;14.02;;;;;;;;;;5013514;28;20038;-65
2022/05/05 04:39:48;;;;;;;31.58;14.05;;;;;;;;;;5013590;28;20487;-63
2022/05/05 04:42:13;;;;;;;26.25;13.30;;;;;;;;;;5012679;28;20044;-65
2022/05/05 04:44:38;;;;;;;27.52;11.98;;;;;;;;;;5013473;28;20022;-64
2022/05/05 04:47:04;;;;;;;28.23;12.15;;;;;;;;;;5013326;28;20030;-66
2022/05/05 04:49:31;;;;;;;28.88;12.57;;;;;;;;;;5013446;28;20033;-65
2022/05/05 04:51:57;;;;;;;23.30;11.32;;;;;;;;;;5013285;28;20025;-64
2022/05/05 04:54:22;;;;;;;20.40;9.90;;;;;;;;;;5013312;28;20018;-64
2022/05/05 04:56:48;;;;;;;20.00;9.90;;;;;;;;;;5012866;28;20040;-65
2022/05/05 04:59:13;;;;;;;24.35;11.38;;;;;;;;;;5013222;28;20025;-65
2022/05/05 05:01:39;;;;;;;26.75;11.23;;;;;;;;;;5013095;28;20381;-64
2022/05/05 05:04:06;;;;;;;28.23;11.65;;;;;;;;;;5013186;28;20032;-63
2022/05/05 05:06:32;;;;;;;25.92;12.60;;;;;;;;;;5012986;28;20030;-64
2022/05/05 05:08:58;;;;;;;29.08;14.50;;;;;;;;;;5013093;28;20025;-63
2022/05/05 05:11:23;;;;;;;30.33;13.93;;;;;;;;;;5012794;28;20069;-65
2022/05/05 05:13:49;;;;;;;31.40;14.23;;;;;;;;;;5012725;28;20026;-64
2022/05/05 05:16:15;;;;;;;35.60;15.95;;;;;;;;;;5012971;28;20446;-64
2022/05/05 05:18:40;;;;;;;32.40;15.63;;;;;;;;;;5013137;28;20092;-65
2022/05/05 05:21:06;;;;;;;33.13;17.02;;;;;;;;;;5012728;28;20108;-62
2022/05/05 05:23:32;;;;;;;40.33;16.50;;;;;;;;;;5012959;28;20379;-63
2022/05/05 05:25:58;;;;;;;31.67;15.02;;;;;;;;;;5012665;28;20026;-63
2022/05/05 05:28:23;;;;;;;31.23;14.70;;;;;;;;;;5012816;28;20025;-64
2022/05/05 05:30:49;;;;;;;26.42;12.70;;;;;;;;;;5012823;28;20032;-64
2022/05/05 05:33:14;;;;;;;21.00;9.90;;;;;;;;;;5012979;28;20029;-64
2022/05/05 05:35:40;;;;;;;17.65;8.57;;;;;;;;;;5012721;28;20057;-64
2022/05/05 05:38:05;;;;;;;17.63;7.60;;;;;;;;;;5012304;28;20144;-65
2022/05/05 05:40:31;;;;;;;15.18;7.47;;;;;;;;;;5012638;28;20026;-65
2022/05/05 05:42:57;;;;;;;17.80;7.13;;;;;;;;;;5012791;28;20555;-64
2022/05/05 05:45:24;;;;;;;14.20;6.75;;;;;;;;;;5012698;28;20032;-63
2022/05/05 05:47:49;;;;;;;13.75;6.55;;;;;;;;;;5012813;28;20022;-63
2022/05/05 05:50:15;;;;;;;14.82;6.55;;;;;;;;;;5012683;28;20451;-65
2022/05/05 05:52:40;;;;;;;12.45;6.10;;;;;;;;;;5012733;28;20022;-65
2022/05/05 05:55:06;;;;;;;16.00;6.30;;;;;;;;;;5015262;28;20022;-65
2022/05/05 05:57:32;;;;;;;12.18;5.85;;;;;;;;;;5016537;28;20030;-65
2022/05/05 05:59:57;;;;;;;13.73;6.03;;;;;;;;;;5016549;28;20030;-64
2022/05/05 06:05:07;;;;;;;17.52;7.28;;;;;;;;;;5016497;28;20514;-64
2022/05/05 06:07:33;;;;;;;11.80;6.75;;;;;;;;;;5016269;28;20053;-65
2022/05/05 06:09:58;;;;;;;20.05;9.15;;;;;;;;;;5016077;28;20109;-64
2022/05/05 06:12:24;;;;;;;14.93;8.35;;;;;;;;;;5016237;28;20030;-64
2022/05/05 06:14:49;;;;;;;13.27;6.75;;;;;;;;;;5016271;28;20100;-65
2022/05/05 06:17:15;;;;;;;11.20;6.22;;;;;;;;;;5016418;28;20033;-65
2022/05/05 06:19:41;;;;;;;11.25;5.45;;;;;;;;;;5015919;28;20026;-65
2022/05/05 06:22:07;;;;;;;12.85;5.80;;;;;;;;;;5016091;28;20060;-65
2022/05/05 06:24:32;;;;;;;12.13;6.13;;;;;;;;;;5015781;28;20057;-65
2022/05/05 06:26:58;;;;;;;11.20;6.25;;;;;;;;;;5016174;28;20053;-65
2022/05/05 06:29:25;;;;;;;15.02;6.63;;;;;;;;;;5015967;28;20336;-65
2022/05/05 06:31:51;;;;;;;16.67;6.95;;;;;;;;;;5016057;28;20075;-65
2022/05/05 06:34:16;;;;;;;18.52;7.72;;;;;;;;;;5015938;28;20386;-65
2022/05/05 06:36:42;;;;;;;17.15;8.20;;;;;;;;;;5015690;28;20026;-66
2022/05/05 06:39:07;;;;;;;20.20;8.95;;;;;;;;;;5015593;28;20073;-65
2022/05/05 06:41:34;;;;;;;24.67;11.27;;;;;;;;;;5015692;28;20112;-64
2022/05/05 06:43:59;;;;;;;34.10;12.98;;;;;;;;;;5015792;28;20058;-65
2022/05/05 06:46:25;;;;;;;40.55;14.75;;;;;;;;;;5015701;28;20135;-65
2022/05/05 06:48:51;;;;;;;31.98;14.50;;;;;;;;;;5015605;28;20467;-66
2022/05/05 06:51:16;;;;;;;38.05;15.15;;;;;;;;;;5015596;28;20069;-66
2022/05/05 06:53:42;;;;;;;37.30;15.82;;;;;;;;;;5015363;28;20471;-65
2022/05/05 06:56:07;;;;;;;42.05;14.13;;;;;;;;;;5015531;28;20041;-65
2022/05/05 06:58:33;;;;;;;38.65;14.07;;;;;;;;;;5015501;28;20483;-65
2022/05/05 07:03:42;;;;;;;28.58;11.35;;;;;;;;;;5015633;28;20446;-66
2022/05/05 07:06:10;;;;;;;24.13;10.70;;;;;;;;;;5014502;28;20034;-65
2022/05/05 07:11:21;;;;;;;24.75;10.52;;;;;;;;;;5015527;28;20033;-65
2022/05/05 07:13:47;;;;;;;24.40;10.27;;;;;;;;;;5015241;28;20072;-65
2022/05/05 07:16:13;;;;;;;24.70;11.10;;;;;;;;;;5015247;28;20030;-66
2022/05/05 07:18:38;;;;;;;24.40;8.43;;;;;;;;;;5013724;28;20460;-65
2022/05/05 07:21:04;;;;;;;21.13;7.60;;;;;;;;;;5014616;28;20026;-66
2022/05/05 07:23:29;;;;;;;14.98;7.32;;;;;;;;;;5014904;28;20022;-65
2022/05/05 07:25:55;;;;;;;16.58;7.65;;;;;;;;;;5014991;28;20113;-65
2022/05/05 07:28:21;;;;;;;17.90;7.10;;;;;;;;;;5013351;28;20045;-63
2022/05/05 07:30:47;;;;;;;14.02;6.78;;;;;;;;;;5014482;28;20520;-64
2022/05/05 07:33:12;;;;;;;10.55;5.35;;;;;;;;;;5014844;28;20030;-65
2022/05/05 07:35:38;;;;;;;15.02;5.75;;;;;;;;;;5014561;28;20452;-65
2022/05/05 07:38:05;;;;;;;11.43;4.80;;;;;;;;;;5014545;28;20042;-63
2022/05/05 07:40:30;;;;;;;10.93;4.43;;;;;;;;;;5014854;28;20375;-64
2022/05/05 07:42:56;;;;;;;12.60;4.53;;;;;;;;;;5014679;28;20038;-63
2022/05/05 07:45:21;;;;;;;8.00;4.32;;;;;;;;;;5014550;28;20064;-63
2022/05/05 07:47:47;;;;;;;8.88;4.03;;;;;;;;;;5014347;28;20026;-65
2022/05/05 07:50:12;;;;;;;10.95;4.03;;;;;;;;;;5014152;28;20096;-65
2022/05/05 07:52:38;;;;;;;8.73;4.10;;;;;;;;;;5014481;28;20088;-64
2022/05/05 07:55:04;;;;;;;6.32;3.85;;;;;;;;;;5014405;28;20045;-66
2022/05/05 07:57:30;;;;;;;8.65;3.92;;;;;;;;;;5014291;28;20034;-65
2022/05/05 07:59:56;;;;;;;9.10;4.50;;;;;;;;;;5014392;28;20032;-65
2022/05/05 08:02:22;;;;;;;8.50;3.55;;;;;;;;;;5014218;28;20030;-65
2022/05/05 08:04:47;;;;;;;6.75;3.83;;;;;;;;;;5013980;28;20045;-65
2022/05/05 08:07:13;;;;;;;8.18;3.92;;;;;;;;;;5014040;28;20476;-65
2022/05/05 08:09:39;;;;;;;7.13;3.60;;;;;;;;;;5014141;28;20018;-66
2022/05/05 08:12:06;;;;;;;6.88;4.20;;;;;;;;;;5014097;28;20133;-64
2022/05/05 08:14:32;;;;;;;15.02;8.35;;;;;;;;;;5013926;28;20030;-65
2022/05/05 08:16:58;;;;;;;13.32;6.32;;;;;;;;;;5013170;28;20052;-64
2022/05/05 08:19:24;;;;;;;7.85;3.70;;;;;;;;;;5013730;28;20421;-64
2022/05/05 08:21:50;;;;;;;9.50;3.97;;;;;;;;;;5013612;28;20037;-65
2022/05/05 08:29:45;;;;;;;11.13;4.88;;;;;;;;;;5013980;28;20088;-65
2022/05/05 08:32:10;;;;;;;9.38;4.13;;;;;;;;;;5013788;28;20022;-64
2022/05/05 08:34:36;;;;;;;8.70;4.38;;;;;;;;;;5013746;28;20041;-63
2022/05/05 08:37:02;;;;;;;11.38;4.95;;;;;;;;;;5013468;28;20527;-65
2022/05/05 08:39:28;;;;;;;8.75;4.30;;;;;;;;;;5013513;28;20071;-65
2022/05/05 08:41:55;;;;;;;8.27;4.68;;;;;;;;;;5013552;28;20018;-63
2022/05/05 08:44:20;;;;;;;8.20;4.70;;;;;;;;;;5013503;28;20030;-66
2022/05/05 08:46:50;;;;;;;11.27;4.38;;;;;;;;;;5013218;28;20037;-64
2022/05/05 08:49:20;;;;;;;12.52;5.40;;;;;;;;;;5013215;28;20037;-65
2022/05/05 08:51:48;;;;;;;15.55;4.93;;;;;;;;;;5013603;28;20032;-65
2022/05/05 08:54:16;;;;;;;13.27;4.95;;;;;;;;;;5013256;28;20427;-64
2022/05/05 08:56:48;;;;;;;11.20;5.03;;;;;;;;;;5013452;28;20080;-65
2022/05/05 08:59:17;;;;;;;16.08;6.65;;;;;;;;;;5013624;28;20028;-64
2022/05/05 09:01:43;;;;;;;23.27;9.15;;;;;;;;;;5021726;23;20052;-65
2022/05/05 09:04:09;;;;;;;24.45;8.75;;;;;;;;;;5012923;28;20025;-64
2022/05/05 09:06:46;;;;;;;28.33;9.90;;;;;;;;;;5013254;28;20037;-64
2022/05/05 09:09:30;;;;;;;24.48;8.70;;;;;;;;;;5013066;28;20445;-65
2022/05/05 09:12:05;;;;;;;19.15;8.02;;;;;;;;;;5013269;28;20108;-66
2022/05/05 09:14:44;;;;;;;19.83;8.90;;;;;;;;;;5013196;28;20036;-65
2022/05/05 09:17:14;;;;;;;11.95;4.65;;;;;;;;;;5012886;28;20033;-64
2022/05/05 09:19:45;;;;;;;10.45;3.35;;;;;;;;;;5012906;28;20049;-64
2022/05/05 09:22:12;;;;;;;8.85;4.10;;;;;;;;;;5013062;28;20022;-65
2022/05/05 09:24:43;;;;;;;6.47;3.72;;;;;;;;;;5012930;28;20072;-64
2022/05/05 09:27:21;;;;;;;8.30;3.80;;;;;;;;;;5012996;28;20065;-65
2022/05/05 09:29:56;;;;;;;9.13;3.85;;;;;;;;;;5019202;28;20145;-64
2022/05/05 09:32:27;;;;;;;9.23;3.50;;;;;;;;;;5019240;28;20084;-64
2022/05/05 09:34:57;;;;;;;9.00;4.22;;;;;;;;;;5019450;28;20026;-64
2022/05/05 09:37:22;;;;;;;;;;;;;;;;;;5019829;28;20168;-63
2022/05/05 09:39:54;;;;;;;11.23;4.30;;;;;;;;;;5019309;28;20371;-65
2022/05/05 09:42:45;;;;;;;15.10;4.47;;;;;;;;;;5019281;28;20076;-65
2022/05/05 09:45:31;;;;;;;8.40;4.43;;;;;;;;;;5019249;28;20030;-65
2022/05/05 09:47:59;;;;;;;13.13;5.70;;;;;;;;;;5019246;28;20025;-65
2022/05/05 09:50:27;;;;;;;7.60;4.75;;;;;;;;;;5019093;28;20491;-64
2022/05/05 09:58:37;;;;;;;12.38;4.43;;;;;;;;;;5019560;28;20041;-64
2022/05/05 10:01:05;;;;;;;6.78;3.72;;;;;;;;;;5018888;28;20056;-65
2022/05/05 10:04:05;;;;;;;9.98;4.80;;;;;;;;;;5018908;28;20026;-65
2022/05/05 10:06:34;;;;;;;8.25;4.47;;;;;;;;;;5019087;28;20183;-64
2022/05/05 10:09:20;;;;;;;7.38;4.28;;;;;;;;;;5019043;28;20045;-64
2022/05/05 10:11:47;;;;;;;8.30;4.55;;;;;;;;;;5019066;28;20410;-65
2022/05/05 10:14:16;;;;;;;11.82;6.63;;;;;;;;;;5018887;28;20026;-63
2022/05/05 10:16:42;;;;;;;9.30;4.45;;;;;;;;;;5018861;28;20030;-64
2022/05/05 10:19:08;;;;;;;13.00;4.53;;;;;;;;;;5019042;28;20361;-65
2022/05/05 10:22:05;;;;;;;10.55;4.53;;;;;;;;;;5019075;28;20037;-63
2022/05/05 10:24:43;;;;;;;8.88;4.40;;;;;;;;;;5018903;28;20026;-65
2022/05/05 10:27:10;;;;;;;9.05;5.28;;;;;;;;;;5018967;28;20030;-64
2022/05/05 10:29:42;;;;;;;15.07;5.47;;;;;;;;;;5018530;28;20026;-65
2022/05/05 10:32:13;;;;;;;9.00;4.75;;;;;;;;;;5018833;28;20110;-64
2022/05/05 10:34:52;;;;;;;8.20;4.13;;;;;;;;;;5019001;28;20071;-65
2022/05/05 10:37:22;;;;;;;6.30;3.72;;;;;;;;;;5018960;28;20038;-65
2022/05/05 10:40:01;;;;;;;8.75;4.20;;;;;;;;;;5016625;28;20018;-65
2022/05/05 10:42:30;;;;;;;7.10;3.47;;;;;;;;;;5015684;28;20036;-64
2022/05/05 10:45:13;;;;;;;14.27;3.83;;;;;;;;;;5015497;28;20050;-64
2022/05/05 10:47:55;;;;;;;6.90;3.45;;;;;;;;;;5015688;28;20033;-65
2022/05/05 10:50:56;;;;;;;8.25;4.22;;;;;;;;;;5015520;28;20025;-65
2022/05/05 10:53:31;;;;;;;8.27;3.58;;;;;;;;;;5015658;28;20026;-65
2022/05/05 10:55:58;;;;;;;9.00;3.25;;;;;;;;;;5015612;28;20109;-64
2022/05/05 10:58:59;;;;;;;8.18;3.72;;;;;;;;;;5015365;28;20030;-64
2022/05/05 11:01:26;;;;;;;6.53;3.22;;;;;;;;;;5015108;28;20084;-65
2022/05/05 11:04:20;;;;;;;9.02;3.85;;;;;;;;;;5015364;28;20048;-65
2022/05/05 11:06:50;;;;;;;6.85;3.75;;;;;;;;;;5015103;28;20030;-64
2022/05/05 11:09:32;;;;;;;11.83;4.00;;;;;;;;;;5014923;28;20030;-65
2022/05/05 11:12:17;;;;;;;9.40;3.95;;;;;;;;;;5014030;28;20271;-64
2022/05/05 11:23:49;;;;;;;11.90;3.70;;;;;;;;;;4993041;28;20117;-65
2022/05/05 11:26:16;;;;;;;6.78;3.50;;;;;;;;;;4993046;28;20030;-64
2022/05/05 11:28:42;;;;;;;7.40;3.00;;;;;;;;;;4992979;28;20065;-65
2022/05/05 11:31:22;;;;;;;13.65;3.53;;;;;;;;;;4976508;28;20069;-64
2022/05/05 11:34:03;;;;;;;8.50;3.53;;;;;;;;;;4993013;28;20034;-64
2022/05/05 11:36:33;;;;;;;8.10;3.28;;;;;;;;;;4976655;28;20041;-65
2022/05/05 11:38:59;;;;;;;8.50;3.45;;;;;;;;;;4992853;28;20045;-64
2022/05/05 11:41:26;;;;;;;7.88;3.78;;;;;;;;;;4992903;28;20030;-64
2022/05/05 11:46:38;;;;;;;7.30;3.30;;;;;;;;;;4993023;28;20065;-64
2022/05/05 11:49:04;;;;;;;7.68;3.58;;;;;;;;;;4992801;28;20054;-65
2022/05/05 11:51:32;;;;;;;9.50;3.58;;;;;;;;;;4991758;28;20216;-64
2022/05/05 11:54:08;;;;;;;9.27;3.83;;;;;;;;;;4992674;28;20058;-65
2022/05/05 11:56:36;;;;;;;8.15;3.83;;;;;;;;;;4997016;28;20065;-64
2022/05/05 12:02:01;;;;;;;7.72;3.53;;;;;;;;;;5013921;28;20068;-65
2022/05/05 12:04:28;;;;;;;7.60;2.95;;;;;;;;;;5013078;28;20038;-65
2022/05/05 12:06:54;;;;;;;9.10;3.05;;;;;;;;;;5014015;28;20504;-65
2022/05/05 12:09:20;;;;;;;8.38;3.15;;;;;;;;;;5014124;28;20387;-64
2022/05/05 12:11:46;;;;;;;8.95;3.30;;;;;;;;;;5013763;28;20104;-64
2022/05/05 12:14:13;;;;;;;9.15;3.20;;;;;;;;;;5014093;28;20471;-64
2022/05/05 12:16:39;;;;;;;9.07;3.28;;;;;;;;;;5014155;28;20037;-65
2022/05/05 12:19:12;;;;;;;8.15;3.20;;;;;;;;;;5013716;28;20025;-64
2022/05/05 12:21:49;;;;;;;9.23;3.70;;;;;;;;;;5013763;28;20033;-65
2022/05/05 12:24:15;;;;;;;11.48;5.18;;;;;;;;;;5013756;28;20030;-65
2022/05/05 12:26:40;;;;;;;8.93;3.20;;;;;;;;;;5013698;28;20026;-65
2022/05/05 12:29:17;;;;;;;8.65;3.90;;;;;;;;;;5013766;28;20030;-65
2022/05/05 12:32:00;;;;;;;7.50;3.95;;;;;;;;;;5013524;28;20052;-63
2022/05/05 12:34:27;;;;;;;9.82;3.50;;;;;;;;;;5013579;28;20052;-64
2022/05/05 12:37:11;;;;;;;9.95;3.67;;;;;;;;;;5013551;28;20037;-65
2022/05/05 12:39:49;;;;;;;6.65;3.22;;;;;;;;;;5013385;28;20383;-65
2022/05/05 12:42:16;;;;;;;9.05;3.78;;;;;;;;;;5013245;28;20391;-65
2022/05/05 12:44:47;;;;;;;8.98;3.10;;;;;;;;;;5013568;28;20018;-65
2022/05/05 12:47:12;;;;;;;9.00;3.75;;;;;;;;;;5013324;28;20359;-64
2022/05/05 12:49:43;;;;;;;8.35;3.40;;;;;;;;;;5013241;28;20030;-63
2022/05/05 13:00:22;;;;;;;9.55;3.97;;;;;;;;;;5013371;28;20096;-65
2022/05/05 13:02:47;;;;;;;8.68;3.33;;;;;;;;;;5012773;28;20455;-64
2022/05/05 13:05:14;;;;;;;6.85;3.92;;;;;;;;;;5013324;28;20033;-64
2022/05/05 13:07:40;;;;;;;9.13;3.63;;;;;;;;;;5012595;28;20112;-64
2022/05/05 13:10:06;;;;;;;9.93;3.55;;;;;;;;;;5012880;28;20523;-64
2022/05/05 13:12:31;;;;;;;9.32;3.63;;;;;;;;;;5013134;28;20029;-64
2022/05/05 13:14:57;;;;;;;11.23;4.47;;;;;;;;;;5013197;28;20105;-64
2022/05/05 13:17:22;;;;;;;7.57;3.63;;;;;;;;;;5013084;28;20056;-65
2022/05/05 13:19:48;;;;;;;10.40;3.80;;;;;;;;;;5012809;28;20026;-63
2022/05/05 13:22:13;;;;;;;9.70;3.72;;;;;;;;;;5012805;28;20026;-64
2022/05/05 13:24:39;;;;;;;10.73;3.80;;;;;;;;;;5012636;28;20468;-64
2022/05/05 13:27:04;;;;;;;9.43;3.83;;;;;;;;;;5013005;28;20038;-65
2022/05/05 13:29:30;;;;;;;11.23;4.20;;;;;;;;;;5013023;28;20018;-64
2022/05/05 13:31:56;;;;;;;12.10;3.75;;;;;;;;;;5012727;28;20398;-65
2022/05/05 13:34:22;;;;;;;11.32;3.78;;;;;;;;;;5012685;28;20034;-64
2022/05/05 13:36:47;;;;;;;12.55;3.95;;;;;;;;;;5012776;28;20033;-65
2022/05/05 13:39:15;;;;;;;8.68;3.33;;;;;;;;;;5012670;28;20069;-64
2022/05/05 13:41:40;;;;;;;8.82;4.07;;;;;;;;;;5012803;28;20432;-65
2022/05/05 13:44:06;;;;;;;7.78;3.10;;;;;;;;;;5012780;28;20065;-63
2022/05/05 13:46:33;;;;;;;12.55;3.72;;;;;;;;;;5012780;28;20109;-64
2022/05/05 13:49:00;;;;;;;7.25;3.88;;;;;;;;;;5012666;28;20398;-63
2022/05/05 13:51:26;;;;;;;11.35;4.20;;;;;;;;;;5012555;28;20029;-65
2022/05/05 13:53:51;;;;;;;6.35;3.85;;;;;;;;;;5012300;28;20030;-64
2022/05/05 13:56:17;;;;;;;7.95;3.72;;;;;;;;;;5012474;28;20026;-65
2022/05/05 13:58:42;;;;;;;12.50;4.05;;;;;;;;;;5012661;28;20109;-65
2022/05/05 14:01:08;;;;;;;10.20;4.13;;;;;;;;;;5012419;28;20042;-64
2022/05/05 14:03:33;;;;;;;10.13;4.47;;;;;;;;;;5012471;28;20122;-64
2022/05/05 14:05:59;;;;;;;11.65;4.03;;;;;;;;;;5012586;28;20096;-66
2022/05/05 14:13:52;;;;;;;6.55;3.15;;;;;;;;;;5012618;28;20040;-63
2022/05/05 14:16:18;;;;;;;11.35;3.95;;;;;;;;;;5015680;28;20021;-65
2022/05/05 14:18:44;;;;;;;10.27;4.15;;;;;;;;;;5016214;28;20018;-63
2022/05/05 14:21:10;;;;;;;11.55;4.75;;;;;;;;;;5015885;28;20490;-63
2022/05/05 14:23:36;;;;;;;9.68;4.18;;;;;;;;;;5015794;28;20038;-65
2022/05/05 14:26:01;;;;;;;8.07;3.70;;;;;;;;;;5016016;28;20022;-63
2022/05/05 14:28:27;;;;;;;6.80;3.28;;;;;;;;;;5016014;28;20465;-65
2022/05/05 14:30:54;;;;;;;6.90;3.63;;;;;;;;;;5015750;28;20021;-64
2022/05/05 14:33:20;;;;;;;11.15;3.90;;;;;;;;;;5015706;28;20030;-63
2022/05/05 14:35:46;;;;;;;12.88;3.90;;;;;;;;;;5015905;28;20462;-64
2022/05/05 14:38:12;;;;;;;27.17;13.68;;;;;;;;;;5015601;28;20113;-64
2022/05/05 14:40:38;;;;;;;8.52;2.85;;;;;;;;;;5015774;28;20192;-64
2022/05/05 14:43:03;;;;;;;8.02;2.70;;;;;;;;;;5015650;28;20104;-65
2022/05/05 14:45:29;;;;;;;11.25;3.35;;;;;;;;;;5015636;28;20038;-64
2022/05/05 14:47:54;;;;;;;6.13;3.70;;;;;;;;;;5015859;28;20018;-64
2022/05/05 14:50:20;;;;;;;10.00;3.72;;;;;;;;;;5015761;28;20530;-64
2022/05/05 14:52:46;;;;;;;4.68;2.67;;;;;;;;;;5015464;28;20026;-63
2022/05/05 14:55:12;;;;;;;6.65;2.72;;;;;;;;;;5015487;28;20109;-65
2022/05/05 14:57:38;;;;;;;6.25;2.70;;;;;;;;;;5015477;28;20545;-65
2022/05/05 15:00:06;;;;;;;7.00;2.80;;;;;;;;;;5015068;28;20065;-64
2022/05/05 15:02:33;;;;;;;7.47;3.20;;;;;;;;;;5015185;28;20088;-65
2022/05/05 15:04:58;;;;;;;8.90;3.78;;;;;;;;;;5015076;28;20026;-64
2022/05/05 15:07:24;;;;;;;14.73;7.93;;;;;;;;;;5015216;28;20036;-65
2022/05/05 15:09:50;;;;;;;15.50;8.40;;;;;;;;;;5015213;28;20022;-65
2022/05/05 15:12:16;;;;;;;8.90;4.18;;;;;;;;;;5015045;28;20040;-65
2022/05/05 15:14:41;;;;;;;10.15;4.47;;;;;;;;;;5015313;28;20018;-65
2022/05/05 15:17:07;;;;;;;9.93;4.82;;;;;;;;;;5015444;28;20029;-63
2022/05/05 15:19:36;;;;;;;10.27;4.90;;;;;;;;;;5014375;28;20018;-65
2022/05/05 15:22:03;;;;;;;12.55;4.95;;;;;;;;;;5015065;28;20061;-64
2022/05/05 15:24:28;;;;;;;8.85;4.38;;;;;;;;;;5014833;28;20030;-65
2022/05/05 15:26:54;;;;;;;12.60;4.85;;;;;;;;;;5014496;28;20117;-64
2022/05/05 15:29:19;;;;;;;9.73;4.68;;;;;;;;;;5014840;28;20048;-65
2022/05/05 15:31:45;;;;;;;11.93;4.88;;;;;;;;;;5014738;28;20018;-64
2022/05/05 15:34:10;;;;;;;8.43;5.05;;;;;;;;;;5014375;28;20045;-63